createdAt,value
2017-05-02T00:00:08.008Z,6.52
2017-05-02T00:01:07.470Z,6.68
2017-05-02T00:02:07.719Z,6.81
2017-05-02T00:03:07.246Z,6.89
2017-05-02T00:04:07.769Z,6.81
2017-05-02T00:05:07.351Z,6.84
2017-05-02T00:06:07.961Z,6.85
2017-05-02T00:07:07.610Z,6.93
2017-05-02T00:08:07.169Z,6.76
2017-05-02T00:09:07.750Z,6.73
2017-05-02T00:10:07.219Z,6.80
2017-05-02T00:11:07.826Z,6.82
2017-05-02T00:12:07.391Z,6.66
2017-05-02T00:13:08.056Z,6.77
2017-05-02T00:14:07.584Z,6.69
2017-05-02T00:15:08.169Z,6.60
2017-05-02T00:16:07.752Z,6.76
2017-05-02T00:17:07.456Z,6.82
2017-05-02T00:18:08.179Z,6.91
2017-05-02T00:19:07.778Z,6.86
2017-05-02T00:20:07.371Z,6.96
2017-05-02T00:21:07.517Z,6.81
2017-05-02T00:22:08.008Z,6.92
2017-05-02T00:23:07.495Z,6.68
2017-05-02T00:24:08.101Z,6.80
2017-05-02T00:25:07.631Z,6.73
2017-05-02T00:26:07.344Z,6.55
2017-05-02T00:27:07.882Z,6.55
2017-05-02T00:28:07.437Z,6.63
2017-05-02T00:29:07.981Z,6.69
2017-05-02T00:30:07.566Z,6.79
2017-05-02T00:31:08.212Z,6.88
2017-05-02T00:32:07.850Z,6.83
2017-05-02T00:33:07.412Z,6.66
2017-05-02T00:34:07.922Z,6.71
2017-05-02T00:35:07.528Z,6.72
2017-05-02T00:36:08.158Z,6.74
2017-05-02T00:37:07.651Z,6.83
2017-05-02T00:38:07.178Z,6.96
2017-05-02T00:39:07.764Z,6.90
2017-05-02T00:40:07.345Z,6.85
2017-05-02T00:41:07.918Z,6.79
2017-05-02T00:42:07.412Z,6.79
2017-05-02T00:43:07.889Z,6.89
2017-05-02T00:44:07.381Z,6.65
2017-05-02T00:45:07.948Z,6.71
2017-05-02T00:46:07.572Z,6.76
2017-05-02T00:47:08.148Z,6.73
2017-05-02T00:48:08.060Z,6.74
2017-05-02T00:49:07.651Z,6.66
2017-05-02T00:50:07.227Z,6.61
2017-05-02T00:51:07.753Z,6.63
2017-05-02T00:52:07.208Z,6.71
2017-05-02T00:53:07.679Z,6.74
2017-05-02T00:54:07.898Z,6.75
2017-05-02T00:55:07.439Z,6.59
2017-05-02T00:56:07.976Z,6.66
2017-05-02T00:57:07.514Z,6.74
2017-05-02T00:58:08.062Z,6.73
2017-05-02T00:59:07.649Z,6.79
2017-05-02T01:00:07.167Z,6.86
2017-05-02T01:01:07.645Z,6.97
2017-05-02T01:02:07.227Z,6.69
2017-05-02T01:03:07.769Z,6.84
2017-05-02T01:04:07.321Z,6.76
2017-05-02T01:05:07.839Z,6.72
2017-05-02T01:06:07.428Z,6.71
2017-05-02T01:07:08.107Z,6.78
2017-05-02T01:08:07.688Z,6.69
2017-05-02T01:09:07.262Z,6.78
2017-05-02T01:10:08.892Z,6.75
2017-05-02T01:11:07.444Z,6.86
2017-05-02T01:12:08.066Z,6.81
2017-05-02T01:13:07.495Z,6.87
2017-05-02T01:14:08.050Z,6.90
2017-05-02T01:15:07.614Z,6.90
2017-05-02T01:16:07.242Z,6.54
2017-05-02T01:17:07.929Z,6.61
2017-05-02T01:18:07.484Z,6.76
2017-05-02T01:19:08.141Z,6.73
2017-05-02T01:20:07.786Z,6.82
2017-05-02T01:21:07.335Z,6.65
2017-05-02T01:22:07.891Z,6.66
2017-05-02T01:23:07.443Z,6.41
2017-05-02T01:24:08.021Z,6.48
2017-05-02T01:25:07.603Z,6.72
2017-05-02T01:26:07.113Z,6.65
2017-05-02T01:27:07.576Z,6.80
2017-05-02T01:28:08.236Z,6.83
2017-05-02T01:29:07.692Z,6.82
2017-05-02T01:30:07.403Z,6.83
2017-05-02T01:31:08.025Z,6.82
2017-05-02T01:32:07.508Z,6.98
2017-05-02T01:33:08.012Z,6.76
2017-05-02T01:34:07.524Z,6.75
2017-05-02T01:35:08.022Z,6.44
2017-05-02T01:36:07.606Z,6.54
2017-05-02T01:37:07.218Z,6.72
2017-05-02T01:38:07.829Z,6.80
2017-05-02T01:39:07.505Z,6.87
2017-05-02T01:40:08.068Z,6.75
2017-05-02T01:41:07.518Z,6.84
2017-05-02T01:42:08.193Z,6.91
2017-05-02T01:43:07.789Z,6.95
2017-05-02T01:44:07.287Z,6.78
2017-05-02T01:45:07.823Z,7.01
2017-05-02T01:46:07.380Z,7.02
2017-05-02T01:47:07.861Z,7.06
2017-05-02T01:48:07.347Z,6.96
2017-05-02T01:49:07.915Z,6.99
2017-05-02T01:50:07.495Z,6.83
2017-05-02T01:51:08.219Z,6.87
2017-05-02T01:52:07.736Z,6.92
2017-05-02T01:53:07.238Z,6.97
2017-05-02T01:54:07.772Z,6.70
2017-05-02T01:55:07.515Z,6.84
2017-05-02T01:56:08.146Z,6.88
2017-05-02T01:57:07.738Z,6.91
2017-05-02T01:58:07.688Z,6.85
2017-05-02T01:59:07.161Z,6.73
2017-05-02T02:00:07.644Z,6.82
2017-05-02T02:01:07.237Z,6.90
2017-05-02T02:02:07.874Z,6.71
2017-05-02T02:03:07.601Z,6.69
2017-05-02T02:04:07.068Z,6.71
2017-05-02T02:05:07.665Z,6.64
2017-05-02T02:06:07.224Z,6.47
2017-05-02T02:07:07.709Z,6.47
2017-05-02T02:08:07.257Z,6.54
2017-05-02T02:09:07.930Z,6.64
2017-05-02T02:10:07.439Z,6.70
2017-05-02T02:11:08.049Z,6.83
2017-05-02T02:12:07.567Z,6.86
2017-05-02T02:13:08.055Z,6.85
2017-05-02T02:14:07.599Z,6.88
2017-05-02T02:15:07.287Z,6.95
2017-05-02T02:16:07.847Z,6.87
2017-05-02T02:17:07.519Z,6.80
2017-05-02T02:18:08.145Z,6.83
2017-05-02T02:19:07.630Z,6.71
2017-05-02T02:20:07.146Z,6.77
2017-05-02T02:21:07.713Z,6.79
2017-05-02T02:22:07.182Z,6.85
2017-05-02T02:23:07.773Z,6.90
2017-05-02T02:24:07.246Z,6.95
2017-05-02T02:25:07.869Z,6.85
2017-05-02T02:26:07.391Z,6.81
2017-05-02T02:27:07.914Z,6.84
2017-05-02T02:28:07.477Z,6.85
2017-05-02T02:29:08.049Z,6.77
2017-05-02T02:30:07.659Z,6.90
2017-05-02T02:31:07.148Z,6.93
2017-05-02T02:32:07.620Z,6.90
2017-05-02T02:33:07.177Z,6.90
2017-05-02T02:34:07.678Z,6.83
2017-05-02T02:35:07.294Z,6.84
2017-05-02T02:36:07.870Z,6.67
2017-05-02T02:37:07.348Z,6.63
2017-05-02T02:38:07.992Z,6.75
2017-05-02T02:39:07.499Z,6.64
2017-05-02T02:40:08.098Z,6.73
2017-05-02T02:41:07.608Z,6.87
2017-05-02T02:42:07.081Z,6.96
2017-05-02T02:43:07.540Z,6.89
2017-05-02T02:44:08.141Z,6.92
2017-05-02T02:45:07.661Z,6.80
2017-05-02T02:46:07.320Z,6.65
2017-05-02T02:47:07.877Z,6.71
2017-05-02T02:48:07.409Z,6.76
2017-05-02T02:49:08.059Z,6.73
2017-05-02T02:50:07.527Z,6.61
2017-05-02T02:51:08.102Z,6.73
2017-05-02T02:52:07.549Z,6.69
2017-05-02T02:53:08.148Z,6.83
2017-05-02T02:54:07.665Z,6.91
2017-05-02T02:55:07.210Z,6.76
2017-05-02T02:56:07.713Z,6.69
2017-05-02T02:57:07.244Z,6.72
2017-05-02T02:58:07.839Z,6.63
2017-05-02T02:59:07.371Z,6.77
2017-05-02T03:00:07.924Z,6.76
2017-05-02T03:01:07.485Z,6.79
2017-05-02T03:02:08.017Z,6.75
2017-05-02T03:03:07.567Z,6.82
2017-05-02T03:04:08.091Z,6.90
2017-05-02T03:05:07.559Z,6.95
2017-05-02T03:06:08.125Z,7.00
2017-05-02T03:07:07.706Z,6.89
2017-05-02T03:08:07.741Z,6.81
2017-05-02T03:09:07.189Z,6.67
2017-05-02T03:10:07.719Z,6.78
2017-05-02T03:11:07.229Z,6.88
2017-05-02T03:12:07.739Z,6.81
2017-05-02T03:13:07.269Z,6.81
2017-05-02T03:14:07.831Z,6.87
2017-05-02T03:15:07.384Z,6.98
2017-05-02T03:16:07.984Z,6.96
2017-05-02T03:17:07.713Z,7.05
2017-05-02T03:18:07.262Z,6.99
2017-05-02T03:19:07.796Z,6.89
2017-05-02T03:20:07.663Z,6.99
2017-05-02T03:21:07.166Z,6.96
2017-05-02T03:22:07.746Z,6.92
2017-05-02T03:23:07.373Z,6.76
2017-05-02T03:24:08.012Z,6.84
2017-05-02T03:25:07.513Z,6.80
2017-05-02T03:26:08.206Z,6.91
2017-05-02T03:27:07.757Z,6.76
2017-05-02T03:28:07.509Z,6.85
2017-05-02T03:29:07.977Z,6.76
2017-05-02T03:30:07.595Z,6.80
2017-05-02T03:31:07.187Z,6.75
2017-05-02T03:32:07.764Z,6.93
2017-05-02T03:33:07.231Z,6.86
2017-05-02T03:34:07.793Z,6.95
2017-05-02T03:35:07.378Z,6.96
2017-05-02T03:36:07.864Z,6.97
2017-05-02T03:37:07.356Z,6.84
2017-05-02T03:38:08.204Z,6.92
2017-05-02T03:39:07.715Z,7.02
2017-05-02T03:40:07.248Z,6.98
2017-05-02T03:41:07.908Z,6.96
2017-05-02T03:42:07.509Z,6.70
2017-05-02T03:43:08.054Z,6.72
2017-05-02T03:44:07.593Z,6.80
2017-05-02T03:45:07.050Z,6.83
2017-05-02T03:46:07.535Z,6.91
2017-05-02T03:47:08.430Z,6.99
2017-05-02T03:48:07.944Z,6.92
2017-05-02T03:49:07.560Z,6.98
2017-05-02T03:50:08.118Z,7.09
2017-05-02T03:51:07.578Z,7.09
2017-05-02T03:52:07.120Z,7.12
2017-05-02T03:53:07.606Z,6.71
2017-05-02T03:54:07.093Z,6.82
2017-05-02T03:55:07.678Z,6.94
2017-05-02T03:56:07.162Z,6.97
2017-05-02T03:57:07.739Z,6.87
2017-05-02T03:58:07.308Z,6.89
2017-05-02T03:59:07.847Z,6.89
2017-05-02T04:00:07.531Z,6.94
2017-05-02T04:01:08.152Z,7.09
2017-05-02T04:02:07.740Z,7.00
2017-05-02T04:03:07.274Z,6.98
2017-05-02T04:04:07.814Z,7.10
2017-05-02T04:05:07.305Z,7.05
2017-05-02T04:06:07.887Z,7.02
2017-05-02T04:07:07.347Z,7.10
2017-05-02T04:08:08.033Z,7.18
2017-05-02T04:09:07.671Z,7.22
2017-05-02T04:10:07.389Z,7.34
2017-05-02T04:11:07.906Z,7.26
2017-05-02T04:12:07.391Z,7.25
2017-05-02T04:13:07.923Z,7.05
2017-05-02T04:14:07.354Z,7.05
2017-05-02T04:15:07.625Z,7.00
2017-05-02T04:16:07.170Z,7.02
2017-05-02T04:17:07.858Z,7.05
2017-05-02T04:18:07.443Z,7.16
2017-05-02T04:19:08.014Z,7.19
2017-05-02T04:20:07.824Z,7.02
2017-05-02T04:21:07.294Z,7.12
2017-05-02T04:22:07.899Z,7.09
2017-05-02T04:23:07.474Z,7.10
2017-05-02T04:24:08.077Z,7.12
2017-05-02T04:25:10.236Z,7.04
2017-05-02T04:26:07.033Z,6.84
2017-05-02T04:27:07.495Z,7.02
2017-05-02T04:28:08.028Z,7.12
2017-05-02T04:29:07.545Z,7.03
2017-05-02T04:30:08.215Z,6.96
2017-05-02T04:31:07.852Z,6.95
2017-05-02T04:32:07.408Z,7.06
2017-05-02T04:33:07.972Z,7.15
2017-05-02T04:34:07.556Z,7.15
2017-05-02T04:35:08.112Z,7.16
2017-05-02T04:36:07.618Z,7.11
2017-05-02T04:37:07.064Z,7.19
2017-05-02T04:38:07.556Z,7.24
2017-05-02T04:39:08.132Z,7.21
2017-05-02T04:40:07.626Z,7.23
2017-05-02T04:41:07.400Z,7.14
2017-05-02T04:42:07.860Z,7.04
2017-05-02T04:43:07.443Z,7.09
2017-05-02T04:44:07.964Z,6.93
2017-05-02T04:45:07.595Z,6.91
2017-05-02T04:46:07.059Z,6.93
2017-05-02T04:47:07.734Z,7.10
2017-05-02T04:48:07.308Z,7.01
2017-05-02T04:49:07.895Z,7.16
2017-05-02T04:50:07.458Z,7.09
2017-05-02T04:51:07.951Z,7.14
2017-05-02T04:52:07.597Z,7.01
2017-05-02T04:53:07.087Z,7.04
2017-05-02T04:54:07.616Z,7.14
2017-05-02T04:55:07.088Z,7.10
2017-05-02T04:56:07.645Z,7.12
2017-05-02T04:57:07.125Z,7.22
2017-05-02T04:58:07.677Z,7.15
2017-05-02T04:59:07.227Z,7.24
2017-05-02T05:00:08.051Z,7.22
2017-05-02T05:01:07.555Z,7.25
2017-05-02T05:02:07.993Z,7.27
2017-05-02T05:03:07.509Z,7.17
2017-05-02T05:04:08.054Z,7.15
2017-05-02T05:05:07.612Z,7.08
2017-05-02T05:06:07.050Z,7.12
2017-05-02T05:07:07.831Z,7.15
2017-05-02T05:08:07.441Z,6.97
2017-05-02T05:09:08.086Z,7.03
2017-05-02T05:10:07.679Z,7.10
2017-05-02T05:11:07.171Z,7.09
2017-05-02T05:12:08.108Z,7.18
2017-05-02T05:13:07.838Z,7.31
2017-05-02T05:14:07.292Z,7.29
2017-05-02T05:15:07.805Z,7.24
2017-05-02T05:16:07.329Z,7.36
2017-05-02T05:17:07.988Z,7.27
2017-05-02T05:18:07.490Z,7.30
2017-05-02T05:19:07.927Z,7.34
2017-05-02T05:20:07.588Z,7.35
2017-05-02T05:21:07.145Z,7.34
2017-05-02T05:22:07.631Z,7.36
2017-05-02T05:23:07.188Z,7.36
2017-05-02T05:24:07.753Z,7.49
2017-05-02T05:25:08.242Z,7.47
2017-05-02T05:26:07.784Z,7.54
2017-05-02T05:27:07.255Z,7.52
2017-05-02T05:28:07.826Z,7.61
2017-05-02T05:29:07.373Z,7.67
2017-05-02T05:30:07.964Z,7.62
2017-05-02T05:31:07.555Z,7.54
2017-05-02T05:32:08.137Z,7.44
2017-05-02T05:33:07.705Z,7.48
2017-05-02T05:34:07.226Z,7.48
2017-05-02T05:35:07.841Z,7.57
2017-05-02T05:36:07.278Z,7.53
2017-05-02T05:37:08.037Z,7.40
2017-05-02T05:38:07.571Z,7.44
2017-05-02T05:39:08.119Z,7.54
2017-05-02T05:40:07.752Z,7.58
2017-05-02T05:41:07.262Z,7.60
2017-05-02T05:42:07.789Z,7.68
2017-05-02T05:43:07.554Z,7.73
2017-05-02T05:44:08.155Z,7.70
2017-05-02T05:45:07.994Z,7.61
2017-05-02T05:46:07.539Z,7.66
2017-05-02T05:47:08.031Z,7.69
2017-05-02T05:48:07.556Z,7.77
2017-05-02T05:49:08.106Z,7.78
2017-05-02T05:50:54.865Z,7.77
2017-05-02T05:51:07.403Z,7.79
2017-05-02T05:52:07.962Z,7.84
2017-05-02T05:53:07.725Z,7.86
2017-05-02T05:54:07.292Z,7.72
2017-05-02T05:55:07.905Z,7.60
2017-05-02T05:56:07.529Z,7.69
2017-05-02T05:57:08.131Z,7.90
2017-05-02T05:58:07.667Z,7.85
2017-05-02T05:59:07.264Z,7.76
2017-05-02T06:00:07.872Z,7.85
2017-05-02T06:01:07.394Z,8.04
2017-05-02T06:02:08.269Z,8.00
2017-05-02T06:03:08.120Z,7.97
2017-05-02T06:04:07.711Z,8.13
2017-05-02T06:05:07.583Z,8.19
2017-05-02T06:06:07.349Z,8.18
2017-05-02T06:07:08.119Z,8.19
2017-05-02T06:08:07.799Z,8.31
2017-05-02T06:09:07.367Z,8.22
2017-05-02T06:10:08.009Z,8.09
2017-05-02T06:11:07.522Z,8.12
2017-05-02T06:12:08.079Z,8.27
2017-05-02T06:13:07.675Z,8.31
2017-05-02T06:14:07.216Z,8.33
2017-05-02T06:15:08.140Z,8.19
2017-05-02T06:16:07.637Z,8.34
2017-05-02T06:17:07.280Z,8.23
2017-05-02T06:18:07.858Z,8.17
2017-05-02T06:19:07.413Z,8.25
2017-05-02T06:20:08.145Z,8.28
2017-05-02T06:21:07.646Z,8.29
2017-05-02T06:22:07.098Z,8.29
2017-05-02T06:23:07.643Z,8.35
2017-05-02T06:24:07.377Z,8.34
2017-05-02T06:25:08.155Z,8.44
2017-05-02T06:26:07.730Z,8.40
2017-05-02T06:27:07.604Z,8.29
2017-05-02T06:28:07.100Z,8.31
2017-05-02T06:29:07.681Z,8.32
2017-05-02T06:30:07.183Z,8.26
2017-05-02T06:31:07.737Z,8.35
2017-05-02T06:32:07.436Z,8.45
2017-05-02T06:33:08.023Z,8.66
2017-05-02T06:34:07.598Z,8.68
2017-05-02T06:35:07.217Z,8.73
2017-05-02T06:36:07.965Z,8.67
2017-05-02T06:37:07.453Z,8.70
2017-05-02T06:38:08.066Z,8.52
2017-05-02T06:39:07.544Z,8.59
2017-05-02T06:40:08.075Z,8.60
2017-05-02T06:41:07.570Z,8.70
2017-05-02T06:42:08.319Z,8.79
2017-05-02T06:43:08.777Z,8.81
2017-05-02T06:44:07.377Z,8.79
2017-05-02T06:45:07.934Z,8.86
2017-05-02T06:46:07.480Z,8.81
2017-05-02T06:47:07.980Z,8.84
2017-05-02T06:48:07.686Z,8.81
2017-05-02T06:49:07.255Z,8.70
2017-05-02T06:50:07.860Z,8.70
2017-05-02T06:51:07.699Z,8.72
2017-05-02T06:52:07.147Z,8.75
2017-05-02T06:53:07.639Z,8.83
2017-05-02T06:54:07.173Z,8.83
2017-05-02T06:55:07.722Z,8.87
2017-05-02T06:56:07.254Z,8.90
2017-05-02T06:57:07.807Z,8.81
2017-05-02T06:58:07.367Z,8.76
2017-05-02T06:59:07.953Z,8.75
2017-05-02T07:00:07.463Z,8.76
2017-05-02T07:01:08.116Z,8.85
2017-05-02T07:02:07.613Z,8.82
2017-05-02T07:03:07.195Z,8.70
2017-05-02T07:04:07.688Z,8.69
2017-05-02T07:05:07.189Z,8.75
2017-05-02T07:06:07.738Z,8.83
2017-05-02T07:07:07.311Z,8.87
2017-05-02T07:08:07.993Z,8.85
2017-05-02T07:09:07.575Z,8.84
2017-05-02T07:10:08.195Z,8.84
2017-05-02T07:11:07.827Z,8.93
2017-05-02T07:12:07.305Z,8.99
2017-05-02T07:13:07.818Z,8.91
2017-05-02T07:14:07.250Z,8.84
2017-05-02T07:15:07.839Z,9.00
2017-05-02T07:16:07.609Z,9.04
2017-05-02T07:17:07.297Z,9.08
2017-05-02T07:18:07.789Z,8.97
2017-05-02T07:19:07.349Z,9.09
2017-05-02T07:20:07.949Z,9.02
2017-05-02T07:21:07.562Z,9.02
2017-05-02T07:22:07.208Z,9.05
2017-05-02T07:23:07.733Z,9.08
2017-05-02T07:24:07.331Z,9.26
2017-05-02T07:25:08.002Z,9.30
2017-05-02T07:26:07.632Z,9.35
2017-05-02T07:27:07.794Z,9.24
2017-05-02T07:28:07.256Z,9.08
2017-05-02T07:29:07.871Z,9.17
2017-05-02T07:30:07.438Z,9.20
2017-05-02T07:31:07.960Z,9.23
2017-05-02T07:32:07.671Z,9.33
2017-05-02T07:33:07.129Z,9.23
2017-05-02T07:34:07.620Z,9.23
2017-05-02T07:35:07.201Z,9.02
2017-05-02T07:36:07.754Z,9.11
2017-05-02T07:37:07.341Z,9.17
2017-05-02T07:38:08.011Z,9.28
2017-05-02T07:39:07.617Z,9.22
2017-05-02T07:40:07.071Z,9.26
2017-05-02T07:41:07.647Z,9.29
2017-05-02T07:42:07.213Z,9.24
2017-05-02T07:43:07.723Z,9.35
2017-05-02T07:44:07.559Z,9.42
2017-05-02T07:45:08.272Z,9.44
2017-05-02T07:46:07.868Z,9.41
2017-05-02T07:47:07.410Z,9.30
2017-05-02T07:48:07.975Z,9.20
2017-05-02T07:49:07.508Z,9.18
2017-05-02T07:50:08.086Z,9.18
2017-05-02T07:51:08.087Z,9.30
2017-05-02T07:52:07.626Z,9.24
2017-05-02T07:53:07.131Z,9.13
2017-05-02T07:54:07.886Z,9.15
2017-05-02T07:55:07.439Z,9.25
2017-05-02T07:56:08.094Z,9.33
2017-05-02T07:57:07.285Z,9.34
2017-05-02T07:58:07.823Z,9.41
2017-05-02T07:59:07.289Z,9.46
2017-05-02T08:00:07.846Z,9.38
2017-05-02T08:01:07.358Z,9.39
2017-05-02T08:02:08.066Z,9.45
2017-05-02T08:03:07.733Z,9.39
2017-05-02T08:04:07.328Z,9.43
2017-05-02T08:05:07.889Z,9.53
2017-05-02T08:06:07.475Z,9.60
2017-05-02T08:07:08.076Z,9.75
2017-05-02T08:08:07.661Z,9.64
2017-05-02T08:09:07.580Z,9.71
2017-05-02T08:10:08.309Z,9.77
2017-05-02T08:11:08.733Z,9.91
2017-05-02T08:12:07.966Z,9.90
2017-05-02T08:13:07.779Z,9.90
2017-05-02T08:14:07.569Z,9.83
2017-05-02T08:15:07.275Z,9.77
2017-05-02T08:16:08.453Z,9.69
2017-05-02T08:17:08.240Z,9.51
2017-05-02T08:18:07.930Z,9.65
2017-05-02T08:19:07.612Z,9.58
2017-05-02T08:20:07.421Z,9.53
2017-05-02T08:21:07.948Z,9.54
2017-05-02T08:22:07.483Z,9.64
2017-05-02T08:23:07.974Z,9.64
2017-05-02T08:24:07.612Z,9.63
2017-05-02T08:25:07.117Z,9.64
2017-05-02T08:26:07.605Z,9.58
2017-05-02T08:27:08.163Z,9.56
2017-05-02T08:28:07.704Z,9.67
2017-05-02T08:29:07.521Z,9.58
2017-05-02T08:30:08.015Z,9.59
2017-05-02T08:31:07.597Z,9.65
2017-05-02T08:32:08.278Z,9.59
2017-05-02T08:33:07.895Z,9.74
2017-05-02T08:34:07.427Z,9.86
2017-05-02T08:35:07.993Z,10.10
2017-05-02T08:36:07.560Z,10.13
2017-05-02T08:37:08.140Z,9.97
2017-05-02T08:38:07.785Z,9.98
2017-05-02T08:39:07.496Z,9.97
2017-05-02T08:40:08.012Z,9.94
2017-05-02T08:41:07.947Z,10.04
2017-05-02T08:42:07.425Z,9.96
2017-05-02T08:43:08.109Z,10.09
2017-05-02T08:44:07.701Z,10.05
2017-05-02T08:45:07.289Z,10.09
2017-05-02T08:46:08.070Z,10.20
2017-05-02T08:47:07.655Z,10.23
2017-05-02T08:48:07.161Z,10.05
2017-05-02T08:49:07.701Z,10.11
2017-05-02T08:50:07.276Z,10.20
2017-05-02T08:51:07.767Z,10.16
2017-05-02T08:52:07.319Z,9.98
2017-05-02T08:53:07.947Z,10.03
2017-05-02T08:54:07.618Z,9.98
2017-05-02T08:55:07.192Z,10.08
2017-05-02T08:56:07.787Z,10.13
2017-05-02T08:57:07.277Z,10.15
2017-05-02T08:58:07.733Z,10.17
2017-05-02T08:59:07.239Z,10.17
2017-05-02T09:00:07.806Z,10.34
2017-05-02T09:01:07.278Z,10.29
2017-05-02T09:02:07.767Z,10.20
2017-05-02T09:03:07.447Z,10.23
2017-05-02T09:04:07.928Z,10.22
2017-05-02T09:05:07.580Z,9.87
2017-05-02T09:06:08.131Z,9.77
2017-05-02T09:07:07.710Z,9.82
2017-05-02T09:08:07.293Z,9.86
2017-05-02T09:09:07.990Z,9.75
2017-05-02T09:10:07.727Z,9.90
2017-05-02T09:11:07.242Z,10.03
2017-05-02T09:12:07.840Z,9.90
2017-05-02T09:13:07.450Z,10.03
2017-05-02T09:14:08.082Z,10.05
2017-05-02T09:15:08.525Z,10.08
2017-05-02T09:16:08.336Z,10.10
2017-05-02T09:17:08.132Z,10.03
2017-05-02T09:18:07.879Z,10.14
2017-05-02T09:19:07.443Z,10.30
2017-05-02T09:20:07.965Z,10.38
2017-05-02T09:21:07.552Z,10.42
2017-05-02T09:22:08.126Z,10.37
2017-05-02T09:23:07.692Z,10.43
2017-05-02T09:24:07.194Z,10.50
2017-05-02T09:25:07.775Z,10.33
2017-05-02T09:26:07.249Z,10.44
2017-05-02T09:27:07.860Z,10.51
2017-05-02T09:28:07.582Z,10.38
2017-05-02T09:29:08.414Z,10.40
2017-05-02T09:30:07.954Z,10.61
2017-05-02T09:31:07.648Z,10.45
2017-05-02T09:32:07.113Z,10.40
2017-05-02T09:33:07.633Z,10.44
2017-05-02T09:34:07.158Z,10.52
2017-05-02T09:35:07.645Z,10.43
2017-05-02T09:36:07.154Z,10.51
2017-05-02T09:37:07.723Z,10.55
2017-05-02T09:38:07.623Z,10.73
2017-05-02T09:39:07.487Z,10.74
2017-05-02T09:40:08.100Z,10.76
2017-05-02T09:41:07.668Z,10.69
2017-05-02T09:42:07.188Z,10.81
2017-05-02T09:43:07.711Z,10.50
2017-05-02T09:44:07.224Z,10.74
2017-05-02T09:45:07.661Z,10.85
2017-05-02T09:46:07.385Z,10.85
2017-05-02T09:47:08.374Z,11.04
2017-05-02T09:48:07.942Z,10.88
2017-05-02T09:49:07.636Z,10.91
2017-05-02T09:50:07.133Z,11.06
2017-05-02T09:51:07.597Z,11.11
2017-05-02T09:52:07.219Z,11.07
2017-05-02T09:53:07.834Z,11.06
2017-05-02T09:54:07.393Z,11.09
2017-05-02T09:55:07.982Z,11.25
2017-05-02T09:56:07.442Z,11.16
2017-05-02T09:57:07.940Z,11.04
2017-05-02T09:58:07.571Z,11.11
2017-05-02T09:59:08.106Z,10.97
2017-05-02T10:00:07.692Z,11.10
2017-05-02T10:01:07.215Z,11.20
2017-05-02T10:02:07.718Z,11.07
2017-05-02T10:03:07.375Z,11.15
2017-05-02T10:04:07.927Z,11.30
2017-05-02T10:05:07.406Z,11.27
2017-05-02T10:06:07.934Z,11.35
2017-05-02T10:07:07.502Z,11.27
2017-05-02T10:08:07.218Z,11.35
2017-05-02T10:09:07.795Z,11.28
2017-05-02T10:10:07.258Z,11.29
2017-05-02T10:11:07.821Z,11.21
2017-05-02T10:12:07.537Z,11.21
2017-05-02T10:13:08.243Z,11.34
2017-05-02T10:14:09.195Z,11.49
2017-05-02T10:15:07.901Z,11.54
2017-05-02T10:16:07.480Z,11.59
2017-05-02T10:17:08.163Z,11.70
2017-05-02T10:18:07.711Z,11.72
2017-05-02T10:19:07.476Z,11.74
2017-05-02T10:20:08.036Z,11.66
2017-05-02T10:21:07.537Z,11.68
2017-05-02T10:22:08.037Z,11.65
2017-05-02T10:23:07.489Z,11.59
2017-05-02T10:24:08.004Z,11.64
2017-05-02T10:25:07.597Z,11.73
2017-05-02T10:26:07.228Z,11.82
2017-05-02T10:27:07.749Z,11.83
2017-05-02T10:28:07.190Z,11.69
2017-05-02T10:29:07.756Z,11.70
2017-05-02T10:30:07.304Z,11.72
2017-05-02T10:31:07.795Z,11.84
2017-05-02T10:32:07.350Z,11.95
2017-05-02T10:33:07.942Z,11.96
2017-05-02T10:34:07.532Z,11.90
2017-05-02T10:35:08.046Z,11.79
2017-05-02T10:36:07.518Z,11.76
2017-05-02T10:37:08.215Z,11.90
2017-05-02T10:38:07.802Z,11.99
2017-05-02T10:39:07.780Z,11.98
2017-05-02T10:40:07.316Z,12.09
2017-05-02T10:41:07.786Z,12.10
2017-05-02T10:42:07.285Z,12.15
2017-05-02T10:43:07.882Z,12.21
2017-05-02T10:44:07.741Z,12.22
2017-05-02T10:45:07.234Z,12.31
2017-05-02T10:46:07.834Z,12.19
2017-05-02T10:47:07.529Z,12.32
2017-05-02T10:48:08.172Z,12.44
2017-05-02T10:49:07.686Z,12.54
2017-05-02T10:50:07.236Z,12.51
2017-05-02T10:51:08.089Z,12.60
2017-05-02T10:52:07.844Z,12.50
2017-05-02T10:53:07.296Z,12.60
2017-05-02T10:54:07.904Z,12.66
2017-05-02T10:55:07.390Z,12.58
2017-05-02T10:56:07.975Z,12.26
2017-05-02T10:57:07.550Z,12.17
2017-05-02T10:58:08.056Z,12.26
2017-05-02T10:59:07.598Z,12.32
2017-05-02T11:00:07.031Z,12.48
2017-05-02T11:01:07.553Z,12.53
2017-05-02T11:02:08.088Z,12.61
2017-05-02T11:03:07.888Z,12.56
2017-05-02T11:04:07.490Z,12.61
2017-05-02T11:05:08.340Z,12.63
2017-05-02T11:06:07.808Z,12.69
2017-05-02T11:07:07.371Z,12.75
2017-05-02T11:08:07.963Z,12.90
2017-05-02T11:09:07.455Z,12.90
2017-05-02T11:10:08.027Z,12.92
2017-05-02T11:11:07.635Z,12.86
2017-05-02T11:12:07.059Z,12.74
2017-05-02T11:13:07.627Z,12.52
2017-05-02T11:14:07.207Z,12.57
2017-05-02T11:15:07.756Z,12.71
2017-05-02T11:16:07.250Z,12.83
2017-05-02T11:17:07.987Z,12.67
2017-05-02T11:18:07.515Z,12.67
2017-05-02T11:19:08.363Z,12.72
2017-05-02T11:20:07.933Z,12.62
2017-05-02T11:21:07.532Z,12.69
2017-05-02T11:22:08.016Z,12.70
2017-05-02T11:23:07.646Z,12.80
2017-05-02T11:24:07.103Z,12.83
2017-05-02T11:25:07.616Z,12.81
2017-05-02T11:26:07.398Z,12.77
2017-05-02T11:27:07.958Z,12.68
2017-05-02T11:28:07.494Z,12.76
2017-05-02T11:29:08.035Z,12.88
2017-05-02T11:30:07.551Z,12.99
2017-05-02T11:31:08.194Z,13.09
2017-05-02T11:32:07.791Z,13.23
2017-05-02T11:33:07.343Z,13.23
2017-05-02T11:34:07.852Z,13.21
2017-05-02T11:35:07.602Z,13.21
2017-05-02T11:36:07.220Z,13.01
2017-05-02T11:37:08.373Z,13.08
2017-05-02T11:38:07.889Z,13.06
2017-05-02T11:39:07.497Z,13.16
2017-05-02T11:40:08.123Z,13.25
2017-05-02T11:41:07.722Z,13.29
2017-05-02T11:42:07.370Z,13.31
2017-05-02T11:43:07.944Z,13.18
2017-05-02T11:44:07.522Z,13.13
2017-05-02T11:45:08.061Z,13.19
2017-05-02T11:46:07.711Z,13.22
2017-05-02T11:47:07.287Z,13.32
2017-05-02T11:48:07.861Z,13.23
2017-05-02T11:49:07.392Z,13.31
2017-05-02T11:50:07.953Z,13.35
2017-05-02T11:51:07.820Z,13.40
2017-05-02T11:52:07.410Z,13.52
2017-05-02T11:53:07.843Z,13.57
2017-05-02T11:54:07.321Z,13.55
2017-05-02T11:55:07.883Z,13.47
2017-05-02T11:56:07.538Z,13.49
2017-05-02T11:57:08.077Z,13.56
2017-05-02T11:58:07.718Z,13.66
2017-05-02T11:59:07.188Z,13.71
2017-05-02T12:00:07.729Z,13.54
2017-05-02T12:01:07.258Z,13.57
2017-05-02T12:02:07.956Z,13.58
2017-05-02T12:03:07.539Z,13.55
2017-05-02T12:04:08.143Z,13.46
2017-05-02T12:05:07.650Z,13.47
2017-05-02T12:06:07.370Z,13.58
2017-05-02T12:07:07.918Z,13.60
2017-05-02T12:08:08.357Z,13.53
2017-05-02T12:09:07.939Z,13.59
2017-05-02T12:10:07.500Z,13.67
2017-05-02T12:11:08.025Z,13.77
2017-05-02T12:12:07.591Z,13.92
2017-05-02T12:13:08.059Z,13.72
2017-05-02T12:14:07.637Z,13.80
2017-05-02T12:15:07.362Z,13.94
2017-05-02T12:16:07.899Z,14.05
2017-05-02T12:17:07.467Z,14.10
2017-05-02T12:18:08.090Z,14.03
2017-05-02T12:19:07.640Z,13.98
2017-05-02T12:20:07.328Z,14.01
2017-05-02T12:21:07.911Z,14.02
2017-05-02T12:22:07.440Z,14.03
2017-05-02T12:23:08.043Z,14.03
2017-05-02T12:24:07.716Z,14.12
2017-05-02T12:25:07.280Z,14.26
2017-05-02T12:26:07.854Z,14.18
2017-05-02T12:27:07.570Z,14.10
2017-05-02T12:28:07.409Z,13.83
2017-05-02T12:29:07.944Z,13.63
2017-05-02T12:30:07.496Z,13.56
2017-05-02T12:31:08.055Z,13.51
2017-05-02T12:32:07.665Z,13.51
2017-05-02T12:33:07.218Z,13.51
2017-05-02T12:34:07.975Z,13.47
2017-05-02T12:35:08.167Z,13.50
2017-05-02T12:36:07.749Z,13.53
2017-05-02T12:37:07.385Z,13.46
2017-05-02T12:38:07.977Z,13.46
2017-05-02T12:39:07.552Z,13.51
2017-05-02T12:40:08.222Z,13.58
2017-05-02T12:41:07.807Z,13.61
2017-05-02T12:42:07.687Z,13.66
2017-05-02T12:43:07.199Z,13.57
2017-05-02T12:44:07.830Z,13.60
2017-05-02T12:45:07.305Z,13.59
2017-05-02T12:46:07.980Z,13.54
2017-05-02T12:47:07.442Z,13.59
2017-05-02T12:48:07.956Z,13.64
2017-05-02T12:49:07.590Z,13.66
2017-05-02T12:50:08.353Z,13.64
2017-05-02T12:51:07.999Z,13.55
2017-05-02T12:52:07.561Z,13.65
2017-05-02T12:53:08.106Z,13.61
2017-05-02T12:54:07.624Z,13.62
2017-05-02T12:56:07.377Z,13.93
2017-05-02T12:57:07.762Z,13.94
2017-05-02T12:58:07.362Z,13.87
2017-05-02T12:59:07.903Z,13.87
2017-05-02T13:00:07.534Z,13.91
2017-05-02T13:01:08.153Z,13.97
2017-05-02T13:02:07.663Z,14.08
2017-05-02T13:03:07.235Z,14.20
2017-05-02T13:04:07.818Z,14.52
2017-05-02T13:05:07.472Z,14.74
2017-05-02T13:06:08.112Z,15.00
2017-05-02T13:07:07.855Z,15.19
2017-05-02T13:08:07.437Z,15.10
2017-05-02T13:09:07.982Z,15.19
2017-05-02T13:10:07.480Z,14.97